createdAt,value
2022-09-18T00:01:43.733Z,99916.81
2022-09-18T00:04:15.165Z,99925.72
2022-09-18T00:06:45.195Z,99929.34
2022-09-18T00:09:17.229Z,99920.78
2022-09-18T00:11:50.610Z,99924.25
2022-09-18T00:14:23.754Z,99920.78
2022-09-18T00:16:52.358Z,99907.72
2022-09-18T00:19:21.754Z,99920.78
2022-09-18T00:21:52.614Z,99922.44
2022-09-18T00:24:23.645Z,99910.38
2022-09-18T00:26:58.202Z,99906.91
2022-09-18T00:29:26.846Z,99922.50
2022-09-18T00:31:55.356Z,99923.28
2022-09-18T00:34:25.147Z,99917.06
2022-09-18T00:36:56.487Z,99906.31
2022-09-18T00:39:26.830Z,99916.47
2022-09-18T00:42:00.129Z,99902.75
2022-09-18T00:44:41.543Z,99925.34
2022-09-18T00:47:21.875Z,99907.94
2022-09-18T00:49:56.476Z,99915.94
2022-09-18T00:52:31.330Z,99906.13
2022-09-18T00:55:04.653Z,99910.66
2022-09-18T00:57:43.213Z,99908.19
2022-09-18T01:00:14.592Z,99899.19
2022-09-18T01:02:44.630Z,99913.44
2022-09-18T01:05:15.044Z,99908.84
2022-09-18T01:08:11.492Z,99909.03
2022-09-18T01:10:54.990Z,99915.25
2022-09-18T01:13:36.395Z,99909.09
2022-09-18T01:16:11.148Z,99931.09
2022-09-18T01:18:48.209Z,99919.09
2022-09-18T01:21:18.716Z,99931.34
2022-09-18T01:24:22.349Z,99928.28
2022-09-18T01:27:00.388Z,99926.53
2022-09-18T01:29:43.899Z,99919.44
2022-09-18T01:32:20.798Z,99913.94
2022-09-18T01:34:57.491Z,99922.69
2022-09-18T01:37:33.406Z,99911.09
2022-09-18T01:40:09.756Z,99913.81
2022-09-18T01:42:39.688Z,99905.09
2022-09-18T01:45:14.307Z,99906.91
2022-09-18T01:47:49.317Z,99910.44
2022-09-18T01:50:19.068Z,99898.75
2022-09-18T01:52:53.029Z,99900.00
2022-09-18T01:55:26.888Z,99910.69
2022-09-18T01:57:59.224Z,99906.44
2022-09-18T02:00:31.987Z,99905.34
2022-09-18T02:03:04.456Z,99901.88
2022-09-18T02:05:37.470Z,99899.53
2022-09-18T02:08:14.072Z,99897.88
2022-09-18T02:10:46.526Z,99909.28
2022-09-18T02:13:18.259Z,99911.09
2022-09-18T02:15:50.749Z,99895.25
2022-09-18T02:18:28.336Z,99893.44
2022-09-18T02:20:57.956Z,99894.16
2022-09-18T02:23:28.362Z,99887.84
2022-09-18T02:26:00.441Z,99896.50
2022-09-18T02:28:31.209Z,99902.91
2022-09-18T02:31:00.911Z,99908.94
2022-09-18T02:33:32.680Z,99897.75
2022-09-18T02:36:23.089Z,99891.56
2022-09-18T02:39:01.431Z,99877.53
2022-09-18T02:41:37.346Z,99888.72
2022-09-18T02:44:12.237Z,99877.28
2022-09-18T02:46:51.791Z,99879.09
2022-09-18T02:49:29.255Z,99884.56
2022-09-18T02:52:03.888Z,99889.97
2022-09-18T02:54:42.322Z,99876.13
2022-09-18T02:57:16.355Z,99884.00
2022-09-18T02:59:49.194Z,99881.44
2022-09-18T03:02:20.294Z,99881.50
2022-09-18T03:04:48.586Z,99890.44
2022-09-18T03:07:17.110Z,99887.59
2022-09-18T03:09:45.986Z,99877.94
2022-09-18T03:12:14.388Z,99876.13
2022-09-18T03:14:42.638Z,99881.31
2022-09-18T03:17:11.387Z,99879.44
2022-09-18T03:19:41.161Z,99865.66
2022-09-18T03:22:09.722Z,99871.50
2022-09-18T03:24:37.884Z,99883.75
2022-09-18T03:27:07.037Z,99880.06
2022-09-18T03:29:35.372Z,99887.69
2022-09-18T03:32:04.361Z,99868.56
2022-09-18T03:34:32.513Z,99892.28
2022-09-18T03:37:02.246Z,99893.22
2022-09-18T03:39:30.508Z,99901.97
2022-09-18T03:41:58.524Z,99894.91
2022-09-18T03:44:27.118Z,99897.56
2022-09-18T03:46:55.666Z,99878.47
2022-09-18T03:49:23.836Z,99890.53
2022-09-18T03:51:52.061Z,99896.69
2022-09-18T03:54:22.076Z,99903.69
2022-09-18T03:56:50.138Z,99903.47
2022-09-18T03:59:18.312Z,99910.84
2022-09-18T04:01:47.472Z,99901.34
2022-09-18T04:04:15.629Z,99912.72
2022-09-18T04:06:43.903Z,99916.22
2022-09-18T04:09:12.344Z,99917.00
2022-09-18T04:11:41.831Z,99909.06
2022-09-18T04:14:10.087Z,99914.00
2022-09-18T04:16:38.241Z,99928.28
2022-09-18T04:19:06.532Z,99929.03
2022-09-18T04:21:34.781Z,99924.72
2022-09-18T04:24:03.497Z,99931.75
2022-09-18T04:26:31.718Z,99936.09
2022-09-18T04:29:01.489Z,99935.34
2022-09-18T04:31:30.256Z,99935.44
2022-09-18T04:33:58.463Z,99937.16
2022-09-18T04:36:26.875Z,99935.34
2022-09-18T04:38:55.139Z,99931.75
2022-09-18T04:41:23.282Z,99940.53
2022-09-18T04:43:51.424Z,99939.66
2022-09-18T04:46:20.997Z,99947.19
2022-09-18T04:48:51.023Z,99949.00
2022-09-18T04:51:19.336Z,99935.47
2022-09-18T04:53:47.663Z,99943.66
2022-09-18T04:56:15.935Z,99957.34
2022-09-18T04:58:44.313Z,99947.06
2022-09-18T05:01:12.811Z,99951.50
2022-09-18T05:03:42.554Z,99934.81
2022-09-18T05:06:11.044Z,99950.56
2022-09-18T05:08:39.764Z,99951.53
2022-09-18T05:11:07.910Z,99945.50
2022-09-18T05:13:36.126Z,99957.88
2022-09-18T05:16:04.283Z,99968.44
2022-09-18T05:18:32.369Z,99960.56
2022-09-18T05:21:04.403Z,99943.25
2022-09-18T05:23:33.443Z,99957.00
2022-09-18T05:26:01.599Z,99960.19
2022-09-18T05:28:29.849Z,99962.06
2022-09-18T05:31:01.270Z,99962.09
2022-09-18T05:33:29.809Z,99964.66
2022-09-18T05:35:59.423Z,99960.28
2022-09-18T05:38:29.198Z,99966.47
2022-09-18T05:41:01.371Z,99962.09
2022-09-18T05:43:30.157Z,99970.75
2022-09-18T05:45:58.599Z,99968.69
2022-09-18T05:48:27.030Z,99960.66
2022-09-18T05:50:55.245Z,99958.00
2022-09-18T05:53:23.616Z,99961.59
2022-09-18T05:55:53.357Z,99962.53
2022-09-18T05:58:22.102Z,99966.03
2022-09-18T06:00:51.354Z,99965.59
2022-09-18T06:03:19.756Z,99963.97
2022-09-18T06:05:53.787Z,99962.06
2022-09-18T06:08:22.928Z,99963.47
2022-09-18T06:10:53.799Z,99969.84
2022-09-18T06:13:21.906Z,99973.38
2022-09-18T06:15:52.688Z,99981.22
2022-09-18T06:18:21.148Z,99978.56
2022-09-18T06:20:54.252Z,99977.66
2022-09-18T06:23:23.542Z,99973.84
2022-09-18T06:26:00.046Z,99977.56
2022-09-18T06:28:28.872Z,99977.16
2022-09-18T06:30:56.804Z,99978.91
2022-09-18T06:33:25.219Z,99984.25
2022-09-18T06:35:54.293Z,99989.63
2022-09-18T06:38:22.535Z,99994.63
2022-09-18T06:40:51.539Z,99985.72
2022-09-18T06:43:22.075Z,99999.84
2022-09-18T06:45:54.341Z,100001.22
2022-09-18T06:48:22.723Z,99998.59
2022-09-18T06:50:54.674Z,100001.22
2022-09-18T06:53:23.309Z,100008.06
2022-09-18T06:55:51.958Z,100013.38
2022-09-18T06:58:21.950Z,100013.44
2022-09-18T07:00:50.454Z,100015.28
2022-09-18T07:03:18.900Z,100020.47
2022-09-18T07:05:47.041Z,100021.16
2022-09-18T07:08:15.574Z,100019.44
2022-09-18T07:10:44.643Z,100019.59
2022-09-18T07:13:13.029Z,100031.13
2022-09-18T07:15:43.110Z,100032.88
2022-09-18T07:18:11.529Z,100039.78
2022-09-18T07:20:39.857Z,100036.19
2022-09-18T07:23:08.390Z,100030.88
2022-09-18T07:25:36.597Z,100027.03
2022-09-18T07:28:08.026Z,100025.25
2022-09-18T07:30:36.801Z,100032.16
2022-09-18T07:33:08.781Z,100039.34
2022-09-18T07:35:37.750Z,100042.75
2022-09-18T07:38:07.397Z,100048.09
2022-09-18T07:40:36.119Z,100034.25
2022-09-18T07:43:07.303Z,100053.31
2022-09-18T07:45:35.729Z,100054.78
2022-09-18T07:48:07.493Z,100058.31
2022-09-18T07:50:35.760Z,100056.41
2022-09-18T07:53:05.533Z,100068.66
2022-09-18T07:55:36.881Z,100070.50
2022-09-18T07:58:06.828Z,100071.25
2022-09-18T08:00:37.954Z,100065.00
2022-09-18T08:03:10.084Z,100070.28
2022-09-18T08:05:38.848Z,100077.22
2022-09-18T08:08:07.834Z,100070.13
2022-09-18T08:10:37.613Z,100077.22
2022-09-18T08:13:06.532Z,100078.00
2022-09-18T08:15:37.877Z,100078.72
2022-09-18T08:18:08.649Z,100078.81
2022-09-18T08:20:36.942Z,100078.72
2022-09-18T08:23:06.790Z,100090.25
2022-09-18T08:25:35.287Z,100089.13
2022-09-18T08:28:04.808Z,100083.47
2022-09-18T08:30:33.219Z,100093.03
2022-09-18T08:33:02.684Z,100099.03
2022-09-18T08:35:33.060Z,100098.97
2022-09-18T08:38:04.679Z,100097.91
2022-09-18T08:40:58.352Z,100110.19
2022-09-18T08:43:43.058Z,100104.00
2022-09-18T08:46:17.276Z,100118.22
2022-09-18T08:48:56.732Z,100116.38
2022-09-18T08:51:32.208Z,100118.13
2022-09-18T08:54:13.446Z,100121.41
2022-09-18T08:56:41.969Z,100122.22
2022-09-18T08:59:19.503Z,100121.69
2022-09-18T09:01:57.393Z,100129.44
2022-09-18T09:04:29.340Z,100120.63
2022-09-18T09:07:11.056Z,100122.59
2022-09-18T09:09:57.171Z,100119.75
2022-09-18T09:12:36.999Z,100104.34
2022-09-18T09:15:26.578Z,100129.75
2022-09-18T09:18:13.319Z,100127.09
2022-09-18T09:20:53.334Z,100125.44
2022-09-18T09:23:47.566Z,100124.56
2022-09-18T09:26:20.266Z,100136.09
2022-09-18T09:28:59.778Z,100132.44
2022-09-18T09:31:35.981Z,100129.28
2022-09-18T09:34:08.923Z,100127.06
2022-09-18T09:36:38.689Z,100127.75
2022-09-18T09:39:18.380Z,100129.47
2022-09-18T09:41:51.209Z,100125.44
2022-09-18T09:44:32.063Z,100132.78
2022-09-18T09:47:07.958Z,100131.94
2022-09-18T09:49:44.302Z,100147.38
2022-09-18T09:52:20.855Z,100143.09
2022-09-18T09:54:55.068Z,100147.38
2022-09-18T09:57:33.609Z,100145.06
2022-09-18T10:00:11.461Z,100155.94
2022-09-18T10:02:56.121Z,100151.97
2022-09-18T10:05:30.784Z,100150.59
2022-09-18T10:08:07.665Z,100154.66
2022-09-18T10:10:42.652Z,100154.66
2022-09-18T10:13:17.554Z,100144.91
2022-09-18T10:15:48.733Z,100131.44
2022-09-18T10:18:20.860Z,100139.59
2022-09-18T10:20:52.749Z,100142.31
2022-09-18T10:23:31.814Z,100153.47
2022-09-18T10:26:04.558Z,100147.97
2022-09-18T10:28:33.111Z,100151.41
2022-09-18T10:31:04.017Z,100151.09
2022-09-18T10:33:38.813Z,100160.59
2022-09-18T10:36:27.263Z,100163.31
2022-09-18T10:38:55.854Z,100157.22
2022-09-18T10:41:31.770Z,100155.91
2022-09-18T10:44:06.026Z,100160.75
2022-09-18T10:46:37.316Z,100143.81
2022-09-18T10:49:20.148Z,100155.69
2022-09-18T10:51:48.442Z,100163.78
2022-09-18T10:54:18.639Z,100158.19
2022-09-18T10:56:49.473Z,100160.06
2022-09-18T10:59:36.303Z,100160.28
2022-09-18T11:02:08.007Z,100165.25
2022-09-18T11:04:36.418Z,100158.09
2022-09-18T11:07:07.766Z,100158.19
2022-09-18T11:09:40.400Z,100172.28
2022-09-18T11:12:18.760Z,100175.78
2022-09-18T11:14:50.757Z,100162.03
2022-09-18T11:17:25.216Z,100185.44
2022-09-18T11:19:55.635Z,100180.94
2022-09-18T11:22:41.569Z,100188.00
2022-09-18T11:25:20.188Z,100190.09
2022-09-18T11:27:51.641Z,100190.66
2022-09-18T11:30:25.567Z,100206.13
2022-09-18T11:32:58.723Z,100195.41
2022-09-18T11:35:32.956Z,100191.34
2022-09-18T11:38:07.889Z,100192.59
2022-09-18T11:40:48.470Z,100178.63
2022-09-18T11:43:22.740Z,100179.25
2022-09-18T11:45:59.391Z,100188.50
2022-09-18T11:48:34.025Z,100185.44
2022-09-18T11:51:05.981Z,100189.41
2022-09-18T11:53:41.861Z,100192.75
2022-09-18T11:56:15.523Z,100194.84
2022-09-18T11:58:50.943Z,100199.19
2022-09-18T12:01:29.771Z,100204.34
2022-09-18T12:04:05.141Z,100199.16
2022-09-18T12:06:41.748Z,100192.13
2022-09-18T12:09:15.500Z,100209.53
2022-09-18T12:11:51.355Z,100216.00
2022-09-18T12:14:25.180Z,100206.09
2022-09-18T12:17:00.757Z,100213.72
2022-09-18T12:19:35.746Z,100216.19
2022-09-18T12:22:11.755Z,100211.72
2022-09-18T12:24:42.872Z,100225.72
2022-09-18T12:27:27.778Z,100209.13
2022-09-18T12:30:04.863Z,100220.16
2022-09-18T12:32:52.999Z,100223.84
2022-09-18T12:35:34.789Z,100212.72
2022-09-18T12:38:16.351Z,100216.38
2022-09-18T12:41:10.811Z,100214.34
2022-09-18T12:44:00.988Z,100204.59
2022-09-18T12:46:45.706Z,100196.84
2022-09-18T12:49:36.171Z,100207.41
2022-09-18T12:52:17.271Z,100200.28
2022-09-18T12:55:01.061Z,100205.56
2022-09-18T12:57:42.404Z,100212.72
2022-09-18T13:00:16.271Z,100223.97
2022-09-18T13:02:53.257Z,100221.16
2022-09-18T13:05:27.211Z,100221.84
2022-09-18T13:08:03.168Z,100222.47
2022-09-18T13:10:37.943Z,100228.28
2022-09-18T13:13:14.823Z,100232.34
2022-09-18T13:15:49.516Z,100221.41
2022-09-18T13:18:43.044Z,100220.94
2022-09-18T13:21:21.087Z,100217.94
2022-09-18T13:23:53.491Z,100213.78
2022-09-18T13:26:24.845Z,100215.09
2022-09-18T13:28:53.680Z,100229.44
2022-09-18T13:31:28.282Z,100230.81
2022-09-18T13:34:00.803Z,100221.94
2022-09-18T13:36:32.220Z,100231.31
2022-09-18T13:39:03.750Z,100240.75
2022-09-18T13:41:44.648Z,100243.28
2022-09-18T13:44:20.813Z,100245.31
2022-09-18T13:46:50.389Z,100257.03
2022-09-18T13:49:28.425Z,100259.16
2022-09-18T13:51:57.298Z,100272.09
2022-09-18T13:54:29.325Z,100270.97
2022-09-18T13:57:20.737Z,100274.03
2022-09-18T13:59:51.687Z,100284.88
2022-09-18T14:02:34.655Z,100284.34
2022-09-18T14:05:20.569Z,100280.97
2022-09-18T14:08:36.533Z,100284.59
2022-09-18T14:11:17.284Z,100296.91
2022-09-18T14:13:52.026Z,100288.50
2022-09-18T14:16:41.441Z,100291.16
2022-09-18T14:19:28.919Z,100297.38
2022-09-18T14:21:59.310Z,100300.84
2022-09-18T14:24:55.560Z,100298.34
2022-09-18T14:27:32.462Z,100314.28
2022-09-18T14:30:05.957Z,100307.88
2022-09-18T14:32:35.606Z,100318.63
2022-09-18T14:35:35.057Z,100310.66
2022-09-18T14:38:17.094Z,100310.63
2022-09-18T14:40:50.416Z,100311.25
2022-09-18T14:43:21.675Z,100315.41
2022-09-18T14:45:51.208Z,100314.38
2022-09-18T14:48:27.295Z,100327.50
2022-09-18T14:51:04.928Z,100333.81
2022-09-18T14:53:43.335Z,100324.88
2022-09-18T14:56:15.225Z,100333.09
2022-09-18T14:58:46.588Z,100334.75
2022-09-18T15:01:17.927Z,100336.47
2022-09-18T15:03:48.924Z,100333.69
2022-09-18T15:06:22.964Z,100311.84
2022-09-18T15:08:55.967Z,100325.22
2022-09-18T15:11:32.066Z,100319.63
2022-09-18T15:14:19.502Z,100323.59
2022-09-18T15:16:56.945Z,100321.91
2022-09-18T15:19:26.572Z,100326.28
2022-09-18T15:21:55.457Z,100297.28
2022-09-18T15:24:26.240Z,100331.19
2022-09-18T15:26:58.411Z,100327.69
2022-09-18T15:29:31.341Z,100330.94
2022-09-18T15:32:00.579Z,100345.03
2022-09-18T15:34:38.750Z,100347.00
2022-09-18T15:37:07.306Z,100337.88
2022-09-18T15:39:40.182Z,100346.78
2022-09-18T15:42:29.497Z,100343.25
2022-09-18T15:45:19.856Z,100346.66
2022-09-18T15:47:48.912Z,100355.19
2022-09-18T15:50:41.928Z,100362.63
2022-09-18T15:53:29.638Z,100359.38
2022-09-18T15:56:06.173Z,100359.09
2022-09-18T15:58:42.919Z,100366.31
2022-09-18T16:01:20.832Z,100368.06
2022-09-18T16:03:50.076Z,100372.75
2022-09-18T16:06:26.100Z,100372.19
2022-09-18T16:08:57.442Z,100373.59
2022-09-18T16:11:43.575Z,100372.91
2022-09-18T16:14:42.833Z,100388.16
2022-09-18T16:17:36.996Z,100392.78
2022-09-18T16:20:30.966Z,100392.78
2022-09-18T16:23:21.019Z,100388.63
2022-09-18T16:26:03.787Z,100401.75
2022-09-18T16:28:36.176Z,100397.22
2022-09-18T16:31:04.880Z,100401.66
2022-09-18T16:33:35.346Z,100405.47
2022-09-18T16:36:07.966Z,100405.69
2022-09-18T16:38:36.698Z,100416.34
2022-09-18T16:41:05.351Z,100418.28
2022-09-18T16:43:36.070Z,100421.94
2022-09-18T16:46:04.934Z,100431.78
2022-09-18T16:48:33.541Z,100435.41
2022-09-18T16:51:01.916Z,100438.22
2022-09-18T16:53:30.910Z,100434.97
2022-09-18T16:55:59.413Z,100444.78
2022-09-18T16:58:29.220Z,100452.75
2022-09-18T17:01:00.887Z,100451.13
2022-09-18T17:03:29.325Z,100460.00
2022-09-18T17:05:57.463Z,100466.22
2022-09-18T17:08:26.009Z,100469.19
2022-09-18T17:10:54.789Z,100469.19
2022-09-18T17:13:23.799Z,100471.03
2022-09-18T17:15:52.383Z,100474.69
2022-09-18T17:18:22.017Z,100477.56
2022-09-18T17:20:51.093Z,100478.53
2022-09-18T17:23:19.453Z,100480.38
2022-09-18T17:25:47.492Z,100479.63
2022-09-18T17:28:21.186Z,100489.53
2022-09-18T17:30:51.317Z,100482.59
2022-09-18T17:33:20.530Z,100482.50
2022-09-18T17:35:50.655Z,100491.47
2022-09-18T17:38:18.734Z,100493.31
2022-09-18T17:40:57.655Z,100503.16
2022-09-18T17:43:26.281Z,100491.75
2022-09-18T17:45:56.534Z,100504.22
2022-09-18T17:48:26.157Z,100505.25
2022-09-18T17:51:00.370Z,100503.72
2022-09-18T17:53:29.785Z,100505.59
2022-09-18T17:56:00.296Z,100505.81
2022-09-18T17:58:29.556Z,100513.00
2022-09-18T18:00:58.898Z,100517.56
2022-09-18T18:03:30.450Z,100518.69
2022-09-18T18:06:01.349Z,100521.69
2022-09-18T18:08:29.916Z,100517.44
2022-09-18T18:11:05.728Z,100529.88
2022-09-18T18:13:36.632Z,100530.88
2022-09-18T18:16:10.888Z,100527.47
2022-09-18T18:18:39.868Z,100527.56
2022-09-18T18:21:11.260Z,100541.78
2022-09-18T18:23:40.137Z,100540.09
2022-09-18T18:26:10.388Z,100531.41
2022-09-18T18:28:40.439Z,100542.00
2022-09-18T18:31:12.301Z,100548.38
2022-09-18T18:33:42.854Z,100547.41
2022-09-18T18:36:15.475Z,100551.28
2022-09-18T18:38:45.623Z,100563.41
2022-09-18T18:41:15.624Z,100568.09
2022-09-18T18:43:44.746Z,100568.25
2022-09-18T18:46:15.742Z,100563.91
2022-09-18T18:48:45.163Z,100576.28
2022-09-18T18:51:17.609Z,100570.28
2022-09-18T18:53:46.102Z,100576.41
2022-09-18T18:56:16.684Z,100577.34
2022-09-18T18:58:45.813Z,100575.63
2022-09-18T19:01:15.967Z,100575.66
2022-09-18T19:03:45.047Z,100576.59
2022-09-18T19:06:15.758Z,100586.25
2022-09-18T19:08:46.335Z,100585.41
2022-09-18T19:11:15.656Z,100586.34
2022-09-18T19:13:45.007Z,100585.50
2022-09-18T19:16:14.159Z,100590.94
2022-09-18T19:18:42.578Z,100588.19
2022-09-18T19:21:10.979Z,100584.84
2022-09-18T19:23:41.264Z,100610.53
2022-09-18T19:26:11.575Z,100592.97
2022-09-18T19:28:39.872Z,100594.50
2022-09-18T19:31:08.186Z,100596.47
2022-09-18T19:33:36.532Z,100592.25
2022-09-18T19:36:06.080Z,100601.97
2022-09-18T19:38:37.082Z,100599.47
2022-09-18T19:41:12.707Z,100605.72
2022-09-18T19:43:41.488Z,100604.13
2022-09-18T19:46:16.343Z,100608.66
2022-09-18T19:48:45.123Z,100611.28
2022-09-18T19:51:13.314Z,100609.47
2022-09-18T19:53:41.623Z,100606.16
2022-09-18T19:56:27.534Z,100613.16
2022-09-18T19:59:00.243Z,100609.69
2022-09-18T20:01:28.399Z,100614.78
2022-09-18T20:03:56.705Z,100623.69
2022-09-18T20:06:25.023Z,100623.09
2022-09-18T20:08:53.081Z,100616.94
2022-09-18T20:11:22.554Z,100627.50
2022-09-18T20:13:51.766Z,100625.78
2022-09-18T20:16:21.266Z,100627.84
2022-09-18T20:18:50.093Z,100634.88
2022-09-18T20:21:20.054Z,100642.88
2022-09-18T20:23:49.023Z,100640.31
2022-09-18T20:26:20.557Z,100638.56
2022-09-18T20:28:50.342Z,100638.75
2022-09-18T20:31:19.090Z,100633.44
2022-09-18T20:33:47.528Z,100635.31
2022-09-18T20:36:16.001Z,100645.94
2022-09-18T20:38:44.614Z,100644.19
2022-09-18T20:41:15.332Z,100649.50
2022-09-18T20:43:44.496Z,100642.50
2022-09-18T20:46:16.387Z,100637.31
2022-09-18T20:48:55.263Z,100642.59
2022-09-18T20:51:26.028Z,100647.06
2022-09-18T20:53:56.387Z,100640.94
2022-09-18T20:56:26.583Z,100638.25
2022-09-18T20:58:55.106Z,100640.94
2022-09-18T21:01:26.536Z,100646.41
2022-09-18T21:03:57.334Z,100649.88
2022-09-18T21:06:27.450Z,100646.44
2022-09-18T21:08:56.724Z,100648.16
2022-09-18T21:11:27.733Z,100650.03
2022-09-18T21:13:57.455Z,100648.13
2022-09-18T21:16:28.152Z,100654.47
2022-09-18T21:18:59.264Z,100655.59
2022-09-18T21:21:29.298Z,100653.91
2022-09-18T21:23:58.691Z,100656.56
2022-09-18T21:26:30.820Z,100659.22
2022-09-18T21:29:01.256Z,100647.69
2022-09-18T21:31:33.029Z,100654.69
2022-09-18T21:34:01.704Z,100654.00
2022-09-18T21:36:30.627Z,100651.28
2022-09-18T21:38:58.868Z,100666.63
2022-09-18T21:41:27.303Z,100659.69
2022-09-18T21:43:57.496Z,100666.81
2022-09-18T21:46:25.920Z,100666.91
2022-09-18T21:48:56.460Z,100668.66
2022-09-18T21:51:24.618Z,100673.59
2022-09-18T21:53:53.147Z,100673.66
2022-09-18T21:56:22.238Z,100666.69
2022-09-18T21:58:50.331Z,100679.88
2022-09-18T22:01:21.745Z,100679.00
2022-09-18T22:03:52.307Z,100678.09
2022-09-18T22:06:24.456Z,100677.25
2022-09-18T22:08:54.580Z,100678.94
2022-09-18T22:11:26.612Z,100669.22
2022-09-18T22:13:55.796Z,100679.06
2022-09-18T22:16:25.557Z,100682.59
2022-09-18T22:18:54.298Z,100678.31
2022-09-18T22:21:27.662Z,100680.06
2022-09-18T22:23:58.740Z,100675.94
2022-09-18T22:26:28.556Z,100684.75
2022-09-18T22:28:58.156Z,100685.59
2022-09-18T22:31:26.413Z,100679.44
2022-09-18T22:33:57.735Z,100677.78
2022-09-18T22:36:27.538Z,100682.94
2022-09-18T22:38:56.178Z,100689.97
2022-09-18T22:41:25.115Z,100693.63
2022-09-18T22:43:57.940Z,100690.91
2022-09-18T22:46:27.132Z,100695.38
2022-09-18T22:48:55.740Z,100686.66
2022-09-18T22:51:27.477Z,100690.16
2022-09-18T22:53:57.356Z,100684.88
2022-09-18T22:56:29.203Z,100685.63
2022-09-18T22:58:58.318Z,100688.38
2022-09-18T23:01:32.138Z,100694.53
2022-09-18T23:04:03.220Z,100692.00
2022-09-18T23:06:34.324Z,100702.53
2022-09-18T23:09:04.703Z,100701.72
2022-09-18T23:11:34.861Z,100699.94
2022-09-18T23:14:04.768Z,100704.28
2022-09-18T23:16:35.060Z,100702.63
2022-09-18T23:19:05.180Z,100705.34
2022-09-18T23:21:36.292Z,100705.38
2022-09-18T23:24:09.035Z,100706.28
2022-09-18T23:26:39.887Z,100711.56
2022-09-18T23:29:09.906Z,100713.38
2022-09-18T23:31:40.099Z,100706.28
2022-09-18T23:34:11.896Z,100720.44
2022-09-18T23:36:43.382Z,100718.63
2022-09-18T23:39:14.923Z,100723.91
2022-09-18T23:41:43.760Z,100717.75
2022-09-18T23:44:14.446Z,100716.91
2022-09-18T23:46:43.597Z,100718.59
2022-09-18T23:49:13.659Z,100720.44
2022-09-18T23:51:46.349Z,100718.72
2022-09-18T23:54:19.021Z,100715.25
2022-09-18T23:56:47.637Z,100719.63
2022-09-18T23:59:21.946Z,100721.38
